Terminal Aerodrome Forecast
Issued by NWS Albany, NY

Home | Current Version | Previous Version | Text Only | Print | Product List | Glossary On
Versions: 1 2 3 4 5 6 7 8 9 10 11 12 13 14 15 16 17 18 19 20 21 22
000
FTUS41 KALY 212300
TAFALB
TAF
KALB 212320Z 2200/2224 16008KT P6SM SCT025 SCT040 BKN120
      TEMPO 2200/2203 3SM -SHRA BR BKN025 OVC035
     FM220300 15005KT 5SM BR SCT015 OVC025
      TEMPO 2203/2206 2SM -SHRA BR BKN012 OVC020
     FM220600 VRB03KT 4SM BR VCSH SCT008 OVC015
     FM221400 16008KT P6SM VCSH SCT008 BKN025=

USA.gov is the U.S. government's official web portal to all federal, state and local government web resources and services.